sensor_id;sensor_type;location;lat;lon;timestamp;temperature;humidity
25046;DHT22;13044;49.304;12.840;2023-07-31T00:00:00;15.90;99.90
25046;DHT22;13044;49.304;12.840;2023-07-31T00:02:27;15.90;99.90
25046;DHT22;13044;49.304;12.840;2023-07-31T00:04:54;15.90;99.90
25046;DHT22;13044;49.304;12.840;2023-07-31T00:07:21;15.90;99.90
25046;DHT22;13044;49.304;12.840;2023-07-31T00:09:48;15.80;99.90
25046;DHT22;13044;49.304;12.840;2023-07-31T00:12:15;15.80;99.90
25046;DHT22;13044;49.304;12.840;2023-07-31T00:14:42;15.80;99.90
25046;DHT22;13044;49.304;12.840;2023-07-31T00:17:09;15.80;99.90
25046;DHT22;13044;49.304;12.840;2023-07-31T00:19:35;15.70;99.90
25046;DHT22;13044;49.304;12.840;2023-07-31T00:22:02;15.70;99.90
25046;DHT22;13044;49.304;12.840;2023-07-31T00:24:29;15.70;99.90
25046;DHT22;13044;49.304;12.840;2023-07-31T00:26:56;15.70;99.90
25046;DHT22;13044;49.304;12.840;2023-07-31T00:29:23;15.60;99.90
25046;DHT22;13044;49.304;12.840;2023-07-31T00:31:50;15.60;99.90
25046;DHT22;13044;49.304;12.840;2023-07-31T00:34:17;15.60;99.90
25046;DHT22;13044;49.304;12.840;2023-07-31T00:36:44;15.60;99.90
25046;DHT22;13044;49.304;12.840;2023-07-31T00:39:10;15.60;99.90
25046;DHT22;13044;49.304;12.840;2023-07-31T00:41:37;15.60;99.90
25046;DHT22;13044;49.304;12.840;2023-07-31T00:44:04;15.60;99.90
25046;DHT22;13044;49.304;12.840;2023-07-31T00:46:31;15.50;99.90
25046;DHT22;13044;49.304;12.840;2023-07-31T00:48:59;15.40;99.90
25046;DHT22;13044;49.304;12.840;2023-07-31T00:51:26;15.40;99.90
25046;DHT22;13044;49.304;12.840;2023-07-31T00:53:53;15.40;99.90
25046;DHT22;13044;49.304;12.840;2023-07-31T00:56:21;15.30;99.90
25046;DHT22;13044;49.304;12.840;2023-07-31T00:58:48;15.30;99.90
25046;DHT22;13044;49.304;12.840;2023-07-31T01:01:15;15.30;99.90
25046;DHT22;13044;49.304;12.840;2023-07-31T01:03:43;15.30;99.90
25046;DHT22;13044;49.304;12.840;2023-07-31T01:11:57;15.10;99.90
25046;DHT22;13044;49.304;12.840;2023-07-31T01:14:30;15.10;99.90
25046;DHT22;13044;49.304;12.840;2023-07-31T01:16:57;15.10;99.90
25046;DHT22;13044;49.304;12.840;2023-07-31T01:19:25;15.10;99.90
25046;DHT22;13044;49.304;12.840;2023-07-31T01:22:12;15.10;99.90
25046;DHT22;13044;49.304;12.840;2023-07-31T01:28:04;15.00;99.90
25046;DHT22;13044;49.304;12.840;2023-07-31T01:30:36;15.00;99.90
25046;DHT22;13044;49.304;12.840;2023-07-31T01:33:05;15.00;99.90
25046;DHT22;13044;49.304;12.840;2023-07-31T01:35:35;14.90;99.90
25046;DHT22;13044;49.304;12.840;2023-07-31T01:38:03;14.90;99.90
25046;DHT22;13044;49.304;12.840;2023-07-31T01:40:30;14.90;99.90
25046;DHT22;13044;49.304;12.840;2023-07-31T01:42:57;14.90;99.90
25046;DHT22;13044;49.304;12.840;2023-07-31T01:45:24;14.90;99.90
25046;DHT22;13044;49.304;12.840;2023-07-31T01:47:51;14.80;99.90
25046;DHT22;13044;49.304;12.840;2023-07-31T01:50:18;14.80;99.90
25046;DHT22;13044;49.304;12.840;2023-07-31T01:52:45;14.80;99.90
25046;DHT22;13044;49.304;12.840;2023-07-31T01:55:12;14.80;99.90
25046;DHT22;13044;49.304;12.840;2023-07-31T01:57:38;14.70;99.90
25046;DHT22;13044;49.304;12.840;2023-07-31T02:00:06;14.70;99.90
25046;DHT22;13044;49.304;12.840;2023-07-31T02:02:33;14.70;99.90
25046;DHT22;13044;49.304;12.840;2023-07-31T02:05:00;14.60;99.90
25046;DHT22;13044;49.304;12.840;2023-07-31T02:07:27;14.60;99.90
25046;DHT22;13044;49.304;12.840;2023-07-31T02:09:54;14.60;99.90
25046;DHT22;13044;49.304;12.840;2023-07-31T02:12:21;14.60;99.90
25046;DHT22;13044;49.304;12.840;2023-07-31T02:14:48;14.50;99.90
25046;DHT22;13044;49.304;12.840;2023-07-31T02:17:14;14.50;99.90
25046;DHT22;13044;49.304;12.840;2023-07-31T02:19:41;14.50;99.90
25046;DHT22;13044;49.304;12.840;2023-07-31T02:22:08;14.40;99.90
25046;DHT22;13044;49.304;12.840;2023-07-31T02:24:35;14.40;99.90
25046;DHT22;13044;49.304;12.840;2023-07-31T02:27:02;14.40;99.90
25046;DHT22;13044;49.304;12.840;2023-07-31T02:29:29;14.30;99.90
25046;DHT22;13044;49.304;12.840;2023-07-31T02:31:56;14.30;99.90
25046;DHT22;13044;49.304;12.840;2023-07-31T02:34:23;14.30;99.90
25046;DHT22;13044;49.304;12.840;2023-07-31T02:36:50;14.20;99.90
25046;DHT22;13044;49.304;12.840;2023-07-31T02:39:16;14.20;99.90
25046;DHT22;13044;49.304;12.840;2023-07-31T02:41:43;14.20;99.90
25046;DHT22;13044;49.304;12.840;2023-07-31T02:44:10;14.20;99.90
25046;DHT22;13044;49.304;12.840;2023-07-31T02:46:40;14.20;99.90
25046;DHT22;13044;49.304;12.840;2023-07-31T02:49:07;14.20;99.90
25046;DHT22;13044;49.304;12.840;2023-07-31T02:51:34;14.10;99.90
25046;DHT22;13044;49.304;12.840;2023-07-31T02:54:01;14.10;99.90
25046;DHT22;13044;49.304;12.840;2023-07-31T02:56:28;14.10;99.90
25046;DHT22;13044;49.304;12.840;2023-07-31T02:58:55;14.10;99.90
25046;DHT22;13044;49.304;12.840;2023-07-31T03:01:21;14.10;99.90
25046;DHT22;13044;49.304;12.840;2023-07-31T03:03:48;14.10;99.90
25046;DHT22;13044;49.304;12.840;2023-07-31T03:06:15;14.10;99.90
25046;DHT22;13044;49.304;12.840;2023-07-31T03:08:42;14.10;99.90
25046;DHT22;13044;49.304;12.840;2023-07-31T03:11:09;14.10;99.90
25046;DHT22;13044;49.304;12.840;2023-07-31T03:13:36;14.10;99.90
25046;DHT22;13044;49.304;12.840;2023-07-31T03:16:03;14.10;99.90
25046;DHT22;13044;49.304;12.840;2023-07-31T03:18:30;14.10;99.90
25046;DHT22;13044;49.304;12.840;2023-07-31T03:20:57;14.10;99.90
25046;DHT22;13044;49.304;12.840;2023-07-31T03:23:23;14.10;99.90
25046;DHT22;13044;49.304;12.840;2023-07-31T03:25:58;14.10;99.90
25046;DHT22;13044;49.304;12.840;2023-07-31T03:28:30;14.10;99.90
25046;DHT22;13044;49.304;12.840;2023-07-31T03:30:57;14.10;99.90
25046;DHT22;13044;49.304;12.840;2023-07-31T03:33:24;14.10;99.90
25046;DHT22;13044;49.304;12.840;2023-07-31T03:35:51;14.10;99.90
25046;DHT22;13044;49.304;12.840;2023-07-31T03:38:18;14.10;99.90
25046;DHT22;13044;49.304;12.840;2023-07-31T03:40:45;14.10;99.90
25046;DHT22;13044;49.304;12.840;2023-07-31T03:43:12;14.10;99.90
25046;DHT22;13044;49.304;12.840;2023-07-31T03:45:39;14.00;99.90
25046;DHT22;13044;49.304;12.840;2023-07-31T03:48:07;14.00;99.90
25046;DHT22;13044;49.304;12.840;2023-07-31T03:50:34;14.00;99.90
25046;DHT22;13044;49.304;12.840;2023-07-31T03:53:01;14.10;99.90
25046;DHT22;13044;49.304;12.840;2023-07-31T03:55:28;14.10;99.90
25046;DHT22;13044;49.304;12.840;2023-07-31T03:57:55;14.10;99.90
25046;DHT22;13044;49.304;12.840;2023-07-31T04:00:22;14.10;99.90
25046;DHT22;13044;49.304;12.840;2023-07-31T04:02:49;14.10;99.90
25046;DHT22;13044;49.304;12.840;2023-07-31T04:05:16;14.10;99.90
25046;DHT22;13044;49.304;12.840;2023-07-31T04:07:43;14.10;99.90
25046;DHT22;13044;49.304;12.840;2023-07-31T04:10:10;14.10;99.90
25046;DHT22;13044;49.304;12.840;2023-07-31T04:12:39;14.10;99.90
25046;DHT22;13044;49.304;12.840;2023-07-31T04:15:06;14.00;99.90
25046;DHT22;13044;49.304;12.840;2023-07-31T04:17:33;14.00;99.90
25046;DHT22;13044;49.304;12.840;2023-07-31T04:20:00;14.00;99.90
25046;DHT22;13044;49.304;12.840;2023-07-31T04:22:27;14.10;99.90
25046;DHT22;13044;49.304;12.840;2023-07-31T04:24:54;14.10;99.90
25046;DHT22;13044;49.304;12.840;2023-07-31T04:27:21;14.10;99.90
25046;DHT22;13044;49.304;12.840;2023-07-31T04:29:48;14.10;99.90
25046;DHT22;13044;49.304;12.840;2023-07-31T04:32:15;14.10;99.90
25046;DHT22;13044;49.304;12.840;2023-07-31T04:34:43;14.10;99.90
25046;DHT22;13044;49.304;12.840;2023-07-31T04:37:10;14.10;99.90
25046;DHT22;13044;49.304;12.840;2023-07-31T04:39:37;14.20;99.90
25046;DHT22;13044;49.304;12.840;2023-07-31T04:42:04;14.20;99.90
25046;DHT22;13044;49.304;12.840;2023-07-31T04:44:31;14.20;99.90
25046;DHT22;13044;49.304;12.840;2023-07-31T04:46:58;14.20;99.90
25046;DHT22;13044;49.304;12.840;2023-07-31T04:49:25;14.30;99.90
25046;DHT22;13044;49.304;12.840;2023-07-31T04:51:51;14.30;99.90
25046;DHT22;13044;49.304;12.840;2023-07-31T04:54:18;14.40;99.90
25046;DHT22;13044;49.304;12.840;2023-07-31T04:56:45;14.40;99.90
25046;DHT22;13044;49.304;12.840;2023-07-31T04:59:12;14.50;99.90
25046;DHT22;13044;49.304;12.840;2023-07-31T05:01:39;14.50;99.90
25046;DHT22;13044;49.304;12.840;2023-07-31T05:04:06;14.50;99.90
25046;DHT22;13044;49.304;12.840;2023-07-31T05:06:33;14.50;99.90
25046;DHT22;13044;49.304;12.840;2023-07-31T05:09:00;14.60;99.90
25046;DHT22;13044;49.304;12.840;2023-07-31T05:11:26;14.60;99.90
25046;DHT22;13044;49.304;12.840;2023-07-31T05:13:53;14.70;99.90
25046;DHT22;13044;49.304;12.840;2023-07-31T05:16:20;14.70;99.90
25046;DHT22;13044;49.304;12.840;2023-07-31T05:18:47;14.70;99.90
25046;DHT22;13044;49.304;12.840;2023-07-31T05:21:14;14.70;99.90
25046;DHT22;13044;49.304;12.840;2023-07-31T05:23:41;14.70;99.90
25046;DHT22;13044;49.304;12.840;2023-07-31T05:26:08;14.70;99.90
25046;DHT22;13044;49.304;12.840;2023-07-31T05:28:37;14.80;99.90
25046;DHT22;13044;49.304;12.840;2023-07-31T05:31:05;14.80;99.90
25046;DHT22;13044;49.304;12.840;2023-07-31T05:33:33;14.80;99.90
25046;DHT22;13044;49.304;12.840;2023-07-31T05:36:00;14.90;99.90
25046;DHT22;13044;49.304;12.840;2023-07-31T05:38:26;14.90;99.90
25046;DHT22;13044;49.304;12.840;2023-07-31T05:40:53;15.00;99.90
25046;DHT22;13044;49.304;12.840;2023-07-31T05:43:20;15.00;99.90
25046;DHT22;13044;49.304;12.840;2023-07-31T05:45:47;15.10;99.90
25046;DHT22;13044;49.304;12.840;2023-07-31T05:48:14;15.10;99.90
25046;DHT22;13044;49.304;12.840;2023-07-31T05:50:42;15.20;99.90
25046;DHT22;13044;49.304;12.840;2023-07-31T05:53:09;15.20;99.90
25046;DHT22;13044;49.304;12.840;2023-07-31T05:55:37;15.20;99.90
25046;DHT22;13044;49.304;12.840;2023-07-31T05:58:04;15.30;99.90
25046;DHT22;13044;49.304;12.840;2023-07-31T06:00:31;15.30;99.90
25046;DHT22;13044;49.304;12.840;2023-07-31T06:02:58;15.40;99.90
25046;DHT22;13044;49.304;12.840;2023-07-31T06:05:25;15.50;99.90
25046;DHT22;13044;49.304;12.840;2023-07-31T06:07:52;15.60;99.90
25046;DHT22;13044;49.304;12.840;2023-07-31T06:10:19;15.70;99.90
25046;DHT22;13044;49.304;12.840;2023-07-31T06:12:46;15.90;99.90
25046;DHT22;13044;49.304;12.840;2023-07-31T06:15:13;16.00;99.90
25046;DHT22;13044;49.304;12.840;2023-07-31T06:17:40;16.20;99.90
25046;DHT22;13044;49.304;12.840;2023-07-31T06:20:08;16.30;99.90
25046;DHT22;13044;49.304;12.840;2023-07-31T06:22:35;16.40;99.90
25046;DHT22;13044;49.304;12.840;2023-07-31T06:25:02;16.40;99.90
25046;DHT22;13044;49.304;12.840;2023-07-31T06:27:29;16.50;99.90
25046;DHT22;13044;49.304;12.840;2023-07-31T06:29:56;16.70;99.90
25046;DHT22;13044;49.304;12.840;2023-07-31T06:32:23;16.80;99.90
25046;DHT22;13044;49.304;12.840;2023-07-31T06:34:50;16.90;99.90
25046;DHT22;13044;49.304;12.840;2023-07-31T06:37:17;17.00;99.90
25046;DHT22;13044;49.304;12.840;2023-07-31T06:39:44;17.10;99.90
25046;DHT22;13044;49.304;12.840;2023-07-31T06:42:11;17.20;99.90
25046;DHT22;13044;49.304;12.840;2023-07-31T06:44:38;17.30;99.90
25046;DHT22;13044;49.304;12.840;2023-07-31T06:47:05;17.40;99.90
25046;DHT22;13044;49.304;12.840;2023-07-31T06:49:32;17.50;99.90
25046;DHT22;13044;49.304;12.840;2023-07-31T06:51:59;17.60;99.90
25046;DHT22;13044;49.304;12.840;2023-07-31T06:54:25;17.70;99.90
25046;DHT22;13044;49.304;12.840;2023-07-31T06:56:53;17.90;99.90
25046;DHT22;13044;49.304;12.840;2023-07-31T06:59:19;18.00;99.90
25046;DHT22;13044;49.304;12.840;2023-07-31T07:01:46;18.10;99.90
25046;DHT22;13044;49.304;12.840;2023-07-31T07:04:14;18.20;99.90
25046;DHT22;13044;49.304;12.840;2023-07-31T07:06:41;18.30;99.90
25046;DHT22;13044;49.304;12.840;2023-07-31T07:09:09;18.30;99.90
25046;DHT22;13044;49.304;12.840;2023-07-31T07:11:36;18.50;99.90
25046;DHT22;13044;49.304;12.840;2023-07-31T07:14:04;18.60;99.90
25046;DHT22;13044;49.304;12.840;2023-07-31T07:16:31;18.70;99.90
25046;DHT22;13044;49.304;12.840;2023-07-31T07:18:58;18.80;99.90
25046;DHT22;13044;49.304;12.840;2023-07-31T07:21:31;18.90;99.90
25046;DHT22;13044;49.304;12.840;2023-07-31T07:23:57;19.00;99.90
25046;DHT22;13044;49.304;12.840;2023-07-31T07:26:25;19.10;99.90
25046;DHT22;13044;49.304;12.840;2023-07-31T07:28:52;19.20;99.90
25046;DHT22;13044;49.304;12.840;2023-07-31T07:31:19;19.30;99.90
25046;DHT22;13044;49.304;12.840;2023-07-31T07:33:46;19.30;99.90
25046;DHT22;13044;49.304;12.840;2023-07-31T07:36:13;19.30;99.90
25046;DHT22;13044;49.304;12.840;2023-07-31T07:38:40;19.40;99.90
25046;DHT22;13044;49.304;12.840;2023-07-31T07:41:08;19.50;99.90
25046;DHT22;13044;49.304;12.840;2023-07-31T07:43:35;19.50;99.90
25046;DHT22;13044;49.304;12.840;2023-07-31T07:46:02;19.60;99.90
25046;DHT22;13044;49.304;12.840;2023-07-31T07:48:29;19.70;99.90
25046;DHT22;13044;49.304;12.840;2023-07-31T07:50:56;19.70;99.90
25046;DHT22;13044;49.304;12.840;2023-07-31T07:53:23;19.90;99.90
25046;DHT22;13044;49.304;12.840;2023-07-31T07:55:50;20.00;99.90
25046;DHT22;13044;49.304;12.840;2023-07-31T07:58:17;20.10;99.90
25046;DHT22;13044;49.304;12.840;2023-07-31T08:00:51;20.20;99.90
25046;DHT22;13044;49.304;12.840;2023-07-31T08:03:18;20.20;99.90
25046;DHT22;13044;49.304;12.840;2023-07-31T08:05:45;20.30;99.90
25046;DHT22;13044;49.304;12.840;2023-07-31T08:08:16;20.30;99.90
25046;DHT22;13044;49.304;12.840;2023-07-31T08:10:43;20.30;99.90
25046;DHT22;13044;49.304;12.840;2023-07-31T08:13:11;20.40;99.90
25046;DHT22;13044;49.304;12.840;2023-07-31T08:15:40;20.50;99.90
25046;DHT22;13044;49.304;12.840;2023-07-31T08:18:08;20.60;99.90
25046;DHT22;13044;49.304;12.840;2023-07-31T08:20:36;20.70;99.90
25046;DHT22;13044;49.304;12.840;2023-07-31T08:23:03;20.70;99.90
25046;DHT22;13044;49.304;12.840;2023-07-31T08:25:30;20.70;99.90
25046;DHT22;13044;49.304;12.840;2023-07-31T08:27:57;20.70;99.90
25046;DHT22;13044;49.304;12.840;2023-07-31T08:30:24;20.70;99.90
25046;DHT22;13044;49.304;12.840;2023-07-31T08:32:51;20.80;99.90
25046;DHT22;13044;49.304;12.840;2023-07-31T08:35:18;20.70;99.90
25046;DHT22;13044;49.304;12.840;2023-07-31T08:37:45;20.80;99.90
25046;DHT22;13044;49.304;12.840;2023-07-31T08:40:12;20.80;99.90
25046;DHT22;13044;49.304;12.840;2023-07-31T08:42:44;20.70;99.90
25046;DHT22;13044;49.304;12.840;2023-07-31T08:45:16;20.70;99.90
25046;DHT22;13044;49.304;12.840;2023-07-31T08:47:46;20.70;99.90
25046;DHT22;13044;49.304;12.840;2023-07-31T08:50:15;20.70;99.90
25046;DHT22;13044;49.304;12.840;2023-07-31T08:52:45;20.70;99.90
25046;DHT22;13044;49.304;12.840;2023-07-31T08:55:13;20.70;99.90
25046;DHT22;13044;49.304;12.840;2023-07-31T08:57:41;20.70;99.90
25046;DHT22;13044;49.304;12.840;2023-07-31T09:00:10;20.70;99.90
25046;DHT22;13044;49.304;12.840;2023-07-31T09:02:44;20.70;99.90
25046;DHT22;13044;49.304;12.840;2023-07-31T09:05:13;20.70;99.90
25046;DHT22;13044;49.304;12.840;2023-07-31T09:07:40;20.70;99.90
25046;DHT22;13044;49.304;12.840;2023-07-31T09:10:09;20.70;99.90
25046;DHT22;13044;49.304;12.840;2023-07-31T09:12:36;20.60;99.90
25046;DHT22;13044;49.304;12.840;2023-07-31T09:15:04;20.60;99.90
25046;DHT22;13044;49.304;12.840;2023-07-31T09:17:33;20.60;99.90
25046;DHT22;13044;49.304;12.840;2023-07-31T09:20:17;20.60;99.90
25046;DHT22;13044;49.304;12.840;2023-07-31T09:22:46;20.60;99.90
25046;DHT22;13044;49.304;12.840;2023-07-31T09:25:19;20.60;99.90
25046;DHT22;13044;49.304;12.840;2023-07-31T09:28:01;20.70;99.90
25046;DHT22;13044;49.304;12.840;2023-07-31T09:30:48;20.70;99.90
25046;DHT22;13044;49.304;12.840;2023-07-31T09:33:18;20.70;99.90
25046;DHT22;13044;49.304;12.840;2023-07-31T09:35:46;20.70;99.90
25046;DHT22;13044;49.304;12.840;2023-07-31T09:38:15;20.80;99.90
25046;DHT22;13044;49.304;12.840;2023-07-31T09:40:44;20.90;99.90
25046;DHT22;13044;49.304;12.840;2023-07-31T09:43:16;21.00;99.90
25046;DHT22;13044;49.304;12.840;2023-07-31T09:45:48;21.10;99.90
25046;DHT22;13044;49.304;12.840;2023-07-31T09:48:16;21.10;99.90
25046;DHT22;13044;49.304;12.840;2023-07-31T09:50:45;21.20;99.90
25046;DHT22;13044;49.304;12.840;2023-07-31T09:53:15;21.20;99.90
25046;DHT22;13044;49.304;12.840;2023-07-31T09:55:42;21.20;99.90
25046;DHT22;13044;49.304;12.840;2023-07-31T09:58:11;21.20;99.90
25046;DHT22;13044;49.304;12.840;2023-07-31T10:00:39;21.30;99.90
25046;DHT22;13044;49.304;12.840;2023-07-31T10:03:08;21.30;99.90
25046;DHT22;13044;49.304;12.840;2023-07-31T10:05:50;21.40;99.90
25046;DHT22;13044;49.304;12.840;2023-07-31T10:08:21;21.40;99.90
25046;DHT22;13044;49.304;12.840;2023-07-31T10:10:52;21.40;99.90
25046;DHT22;13044;49.304;12.840;2023-07-31T10:13:19;21.50;99.90
25046;DHT22;13044;49.304;12.840;2023-07-31T10:15:48;21.50;99.90
25046;DHT22;13044;49.304;12.840;2023-07-31T10:18:16;21.60;99.90
25046;DHT22;13044;49.304;12.840;2023-07-31T10:20:46;21.70;99.10
25046;DHT22;13044;49.304;12.840;2023-07-31T10:23:14;21.70;99.30
25046;DHT22;13044;49.304;12.840;2023-07-31T10:25:43;21.80;99.10
25046;DHT22;13044;49.304;12.840;2023-07-31T10:28:11;21.80;98.40
25046;DHT22;13044;49.304;12.840;2023-07-31T10:30:39;21.80;98.40
25046;DHT22;13044;49.304;12.840;2023-07-31T10:33:06;21.90;98.70
25046;DHT22;13044;49.304;12.840;2023-07-31T10:35:34;21.90;98.50
25046;DHT22;13044;49.304;12.840;2023-07-31T10:38:10;22.00;98.50
25046;DHT22;13044;49.304;12.840;2023-07-31T10:40:41;22.10;98.10
25046;DHT22;13044;49.304;12.840;2023-07-31T10:43:08;22.10;97.10
25046;DHT22;13044;49.304;12.840;2023-07-31T10:45:39;22.20;98.00
25046;DHT22;13044;49.304;12.840;2023-07-31T10:48:16;22.30;97.20
25046;DHT22;13044;49.304;12.840;2023-07-31T10:50:51;22.30;97.00
25046;DHT22;13044;49.304;12.840;2023-07-31T10:53:29;22.40;96.70
25046;DHT22;13044;49.304;12.840;2023-07-31T10:56:05;22.40;96.40
25046;DHT22;13044;49.304;12.840;2023-07-31T10:58:33;22.40;95.80
25046;DHT22;13044;49.304;12.840;2023-07-31T11:01:06;22.40;95.50
25046;DHT22;13044;49.304;12.840;2023-07-31T11:03:47;22.50;94.80
25046;DHT22;13044;49.304;12.840;2023-07-31T11:06:16;22.50;94.20
25046;DHT22;13044;49.304;12.840;2023-07-31T11:08:48;22.60;93.30
25046;DHT22;13044;49.304;12.840;2023-07-31T11:11:18;22.60;92.80
25046;DHT22;13044;49.304;12.840;2023-07-31T11:13:50;22.60;93.30
25046;DHT22;13044;49.304;12.840;2023-07-31T11:16:21;22.70;93.20
25046;DHT22;13044;49.304;12.840;2023-07-31T11:18:50;22.70;92.70
25046;DHT22;13044;49.304;12.840;2023-07-31T11:21:20;22.60;91.80
25046;DHT22;13044;49.304;12.840;2023-07-31T11:23:53;22.60;92.40
25046;DHT22;13044;49.304;12.840;2023-07-31T11:26:24;22.60;92.60
25046;DHT22;13044;49.304;12.840;2023-07-31T11:28:51;22.60;92.40
25046;DHT22;13044;49.304;12.840;2023-07-31T11:31:18;22.60;92.10
25046;DHT22;13044;49.304;12.840;2023-07-31T11:33:46;22.60;92.00
25046;DHT22;13044;49.304;12.840;2023-07-31T11:36:17;22.60;92.20
25046;DHT22;13044;49.304;12.840;2023-07-31T11:38:46;22.70;92.30
25046;DHT22;13044;49.304;12.840;2023-07-31T11:41:16;22.70;92.20
25046;DHT22;13044;49.304;12.840;2023-07-31T11:43:46;22.80;92.00
25046;DHT22;13044;49.304;12.840;2023-07-31T11:46:14;22.90;91.80
25046;DHT22;13044;49.304;12.840;2023-07-31T11:48:42;22.90;91.20
25046;DHT22;13044;49.304;12.840;2023-07-31T11:51:10;23.00;91.80
25046;DHT22;13044;49.304;12.840;2023-07-31T11:53:52;23.00;92.10
25046;DHT22;13044;49.304;12.840;2023-07-31T11:56:23;23.00;91.80
25046;DHT22;13044;49.304;12.840;2023-07-31T11:58:58;22.90;91.40
25046;DHT22;13044;49.304;12.840;2023-07-31T12:01:26;22.90;91.60
25046;DHT22;13044;49.304;12.840;2023-07-31T12:03:55;23.00;91.40
25046;DHT22;13044;49.304;12.840;2023-07-31T12:06:33;23.00;91.70
25046;DHT22;13044;49.304;12.840;2023-07-31T12:09:04;23.10;91.90
25046;DHT22;13044;49.304;12.840;2023-07-31T12:11:43;23.30;91.80
25046;DHT22;13044;49.304;12.840;2023-07-31T12:14:34;23.50;91.90
25046;DHT22;13044;49.304;12.840;2023-07-31T12:17:04;23.60;91.10
25046;DHT22;13044;49.304;12.840;2023-07-31T12:19:31;23.60;90.80
25046;DHT22;13044;49.304;12.840;2023-07-31T12:21:59;23.60;90.90
25046;DHT22;13044;49.304;12.840;2023-07-31T12:24:28;23.70;91.00
25046;DHT22;13044;49.304;12.840;2023-07-31T12:26:55;23.80;90.40
25046;DHT22;13044;49.304;12.840;2023-07-31T12:29:22;23.80;90.00
25046;DHT22;13044;49.304;12.840;2023-07-31T12:31:49;23.90;90.50
25046;DHT22;13044;49.304;12.840;2023-07-31T12:34:17;24.00;90.60
25046;DHT22;13044;49.304;12.840;2023-07-31T12:36:45;24.10;90.80
25046;DHT22;13044;49.304;12.840;2023-07-31T12:39:13;24.20;90.30
25046;DHT22;13044;49.304;12.840;2023-07-31T12:41:40;24.30;89.60
25046;DHT22;13044;49.304;12.840;2023-07-31T12:44:07;24.40;89.30
25046;DHT22;13044;49.304;12.840;2023-07-31T12:46:34;24.40;87.70
25046;DHT22;13044;49.304;12.840;2023-07-31T12:49:02;24.30;86.60
25046;DHT22;13044;49.304;12.840;2023-07-31T12:51:29;24.20;88.20
25046;DHT22;13044;49.304;12.840;2023-07-31T12:53:56;24.30;88.50
25046;DHT22;13044;49.304;12.840;2023-07-31T12:56:23;24.40;88.10
25046;DHT22;13044;49.304;12.840;2023-07-31T12:58:50;24.40;86.80
25046;DHT22;13044;49.304;12.840;2023-07-31T13:01:17;24.50;85.70
25046;DHT22;13044;49.304;12.840;2023-07-31T13:03:44;24.50;84.90
25046;DHT22;13044;49.304;12.840;2023-07-31T13:06:11;24.60;85.70
25046;DHT22;13044;49.304;12.840;2023-07-31T13:08:39;24.60;86.60
25046;DHT22;13044;49.304;12.840;2023-07-31T13:11:06;24.80;86.80
25046;DHT22;13044;49.304;12.840;2023-07-31T13:13:33;24.80;84.50
25046;DHT22;13044;49.304;12.840;2023-07-31T13:16:00;24.70;84.70
25046;DHT22;13044;49.304;12.840;2023-07-31T13:18:27;24.80;84.90
25046;DHT22;13044;49.304;12.840;2023-07-31T13:20:54;24.80;84.70
25046;DHT22;13044;49.304;12.840;2023-07-31T13:23:20;24.80;84.00
25046;DHT22;13044;49.304;12.840;2023-07-31T13:25:48;24.80;84.90
25046;DHT22;13044;49.304;12.840;2023-07-31T13:28:15;24.70;85.00
25046;DHT22;13044;49.304;12.840;2023-07-31T13:30:42;24.60;84.70
25046;DHT22;13044;49.304;12.840;2023-07-31T13:33:09;24.60;84.90
25046;DHT22;13044;49.304;12.840;2023-07-31T13:35:51;24.60;85.20
25046;DHT22;13044;49.304;12.840;2023-07-31T13:38:17;24.50;84.50
25046;DHT22;13044;49.304;12.840;2023-07-31T13:40:44;24.40;85.10
25046;DHT22;13044;49.304;12.840;2023-07-31T13:43:11;24.30;85.40
25046;DHT22;13044;49.304;12.840;2023-07-31T13:45:38;24.40;85.80
25046;DHT22;13044;49.304;12.840;2023-07-31T13:48:05;24.60;87.30
25046;DHT22;13044;49.304;12.840;2023-07-31T13:50:32;24.70;88.10
25046;DHT22;13044;49.304;12.840;2023-07-31T13:52:59;24.80;86.60
25046;DHT22;13044;49.304;12.840;2023-07-31T13:55:26;24.80;84.90
25046;DHT22;13044;49.304;12.840;2023-07-31T13:57:53;24.80;84.30
25046;DHT22;13044;49.304;12.840;2023-07-31T14:00:20;24.70;85.10
25046;DHT22;13044;49.304;12.840;2023-07-31T14:02:47;24.80;84.90
25046;DHT22;13044;49.304;12.840;2023-07-31T14:05:14;24.70;84.70
25046;DHT22;13044;49.304;12.840;2023-07-31T14:07:40;24.70;84.70
25046;DHT22;13044;49.304;12.840;2023-07-31T14:10:08;24.60;84.80
25046;DHT22;13044;49.304;12.840;2023-07-31T14:12:35;24.60;84.70
25046;DHT22;13044;49.304;12.840;2023-07-31T14:15:09;24.60;85.30
25046;DHT22;13044;49.304;12.840;2023-07-31T14:17:37;24.60;84.90
25046;DHT22;13044;49.304;12.840;2023-07-31T14:20:05;24.70;85.10
25046;DHT22;13044;49.304;12.840;2023-07-31T14:22:33;24.70;84.20
25046;DHT22;13044;49.304;12.840;2023-07-31T14:25:01;24.80;82.60
25046;DHT22;13044;49.304;12.840;2023-07-31T14:27:28;24.80;81.90
25046;DHT22;13044;49.304;12.840;2023-07-31T14:29:55;24.80;82.80
25046;DHT22;13044;49.304;12.840;2023-07-31T14:32:23;24.80;81.60
25046;DHT22;13044;49.304;12.840;2023-07-31T14:34:52;24.80;81.40
25046;DHT22;13044;49.304;12.840;2023-07-31T14:37:19;24.80;82.20
25046;DHT22;13044;49.304;12.840;2023-07-31T14:39:46;24.80;81.90
25046;DHT22;13044;49.304;12.840;2023-07-31T14:42:13;24.70;82.30
25046;DHT22;13044;49.304;12.840;2023-07-31T14:44:40;24.60;82.60
25046;DHT22;13044;49.304;12.840;2023-07-31T14:47:07;24.70;82.80
25046;DHT22;13044;49.304;12.840;2023-07-31T14:49:34;24.70;83.00
25046;DHT22;13044;49.304;12.840;2023-07-31T14:52:00;24.60;82.40
25046;DHT22;13044;49.304;12.840;2023-07-31T14:54:27;24.60;82.80
25046;DHT22;13044;49.304;12.840;2023-07-31T14:56:54;24.50;82.40
25046;DHT22;13044;49.304;12.840;2023-07-31T14:59:21;24.50;83.00
25046;DHT22;13044;49.304;12.840;2023-07-31T15:01:48;24.60;83.20
25046;DHT22;13044;49.304;12.840;2023-07-31T15:04:15;24.60;81.20
25046;DHT22;13044;49.304;12.840;2023-07-31T15:06:42;24.50;81.50
25046;DHT22;13044;49.304;12.840;2023-07-31T15:09:09;24.40;81.70
25046;DHT22;13044;49.304;12.840;2023-07-31T15:11:36;24.40;82.00
25046;DHT22;13044;49.304;12.840;2023-07-31T15:14:03;24.30;82.00
25046;DHT22;13044;49.304;12.840;2023-07-31T15:16:30;24.20;82.10
25046;DHT22;13044;49.304;12.840;2023-07-31T15:18:58;24.10;81.90
25046;DHT22;13044;49.304;12.840;2023-07-31T15:21:25;24.10;82.40
25046;DHT22;13044;49.304;12.840;2023-07-31T15:23:52;24.00;82.60
25046;DHT22;13044;49.304;12.840;2023-07-31T15:26:19;24.00;82.20
25046;DHT22;13044;49.304;12.840;2023-07-31T15:28:49;24.00;82.10